createdAt,value
2022-07-31T04:00:32.477Z,60.44
2022-07-31T04:03:08.613Z,60.50
2022-07-31T04:05:54.753Z,60.59
2022-07-31T04:08:24.674Z,60.56
2022-07-31T04:10:52.564Z,60.57
2022-07-31T04:13:21.705Z,60.59
2022-07-31T04:15:49.560Z,60.65
2022-07-31T04:18:17.268Z,60.69
2022-07-31T04:20:46.725Z,60.69
2022-07-31T04:23:14.672Z,60.69
2022-07-31T04:26:25.530Z,60.63
2022-07-31T04:29:03.211Z,60.65
2022-07-31T04:31:31.927Z,60.65
2022-07-31T04:34:02.579Z,60.64
2022-07-31T04:36:30.983Z,60.79
2022-07-31T04:39:01.259Z,60.67
2022-07-31T04:41:29.893Z,60.61
2022-07-31T04:43:57.530Z,60.63
2022-07-31T04:46:26.451Z,60.69
2022-07-31T04:48:55.494Z,60.73
2022-07-31T04:51:26.715Z,60.73
2022-07-31T04:53:54.213Z,60.85
2022-07-31T04:56:41.673Z,60.93
2022-07-31T04:59:11.449Z,60.99
2022-07-31T05:01:42.734Z,60.99
2022-07-31T05:04:11.897Z,61.10
2022-07-31T05:06:45.454Z,61.06
2022-07-31T05:09:19.107Z,61.13
2022-07-31T05:11:49.590Z,61.18
2022-07-31T05:14:19.865Z,61.22
2022-07-31T05:16:47.286Z,61.18
2022-07-31T05:19:16.782Z,61.26
2022-07-31T05:22:04.787Z,61.25
2022-07-31T05:24:43.289Z,61.20
2022-07-31T05:27:13.172Z,61.23
2022-07-31T05:29:42.327Z,61.28
2022-07-31T05:32:10.080Z,61.49
2022-07-31T05:34:37.731Z,61.34
2022-07-31T05:37:05.407Z,61.52
2022-07-31T05:39:35.598Z,61.47
2022-07-31T05:42:21.684Z,61.56
2022-07-31T05:45:09.770Z,61.50
2022-07-31T05:47:40.765Z,61.60
2022-07-31T05:50:10.190Z,61.65
2022-07-31T05:52:38.310Z,61.67
2022-07-31T05:55:13.424Z,61.72
2022-07-31T05:58:00.544Z,61.81
2022-07-31T06:00:29.953Z,61.94
2022-07-31T06:03:01.903Z,61.84
2022-07-31T06:05:56.960Z,62.02
2022-07-31T06:08:25.932Z,62.04
2022-07-31T06:10:53.731Z,62.06
2022-07-31T06:13:25.284Z,62.08
2022-07-31T06:15:53.551Z,62.24
2022-07-31T06:18:22.188Z,62.25
2022-07-31T06:20:50.998Z,62.48
2022-07-31T06:23:22.913Z,62.51
2022-07-31T06:26:06.353Z,62.61
2022-07-31T06:28:48.074Z,62.57
2022-07-31T06:31:22.661Z,62.55
2022-07-31T06:33:53.008Z,62.67
2022-07-31T06:36:23.973Z,62.57
2022-07-31T06:39:14.632Z,62.74
2022-07-31T06:42:27.052Z,62.81
2022-07-31T06:45:08.690Z,62.93
2022-07-31T06:47:57.505Z,62.95
2022-07-31T06:50:49.076Z,62.98
2022-07-31T06:53:31.928Z,62.94
2022-07-31T06:56:00.072Z,62.89
2022-07-31T06:58:27.781Z,62.84
2022-07-31T07:00:55.258Z,62.95
2022-07-31T07:03:22.418Z,62.96
2022-07-31T07:05:49.844Z,62.89
2022-07-31T07:08:16.902Z,62.92
2022-07-31T07:10:45.711Z,62.81
2022-07-31T07:13:45.714Z,62.73
2022-07-31T07:16:18.097Z,62.87
2022-07-31T07:18:45.818Z,62.86
2022-07-31T07:21:13.015Z,62.81
2022-07-31T07:23:41.030Z,62.82
2022-07-31T07:26:22.926Z,62.72
2022-07-31T07:28:50.332Z,62.79
2022-07-31T07:31:19.171Z,62.84
2022-07-31T07:33:48.414Z,63.01
2022-07-31T07:36:23.898Z,62.95
2022-07-31T07:39:18.483Z,63.18
2022-07-31T07:41:46.634Z,63.16
2022-07-31T07:44:14.356Z,63.23
2022-07-31T07:46:42.580Z,63.25
2022-07-31T07:49:12.032Z,63.22
2022-07-31T07:52:15.702Z,63.15
2022-07-31T07:55:05.258Z,63.18
2022-07-31T07:57:51.934Z,63.25
2022-07-31T08:00:46.487Z,63.40
2022-07-31T08:03:49.801Z,63.30
2022-07-31T08:06:02.064Z,63.38
2022-07-31T08:08:29.930Z,63.31
2022-07-31T08:11:20.202Z,63.23
2022-07-31T08:14:38.597Z,63.24
2022-07-31T08:17:29.320Z,63.20
2022-07-31T08:19:58.499Z,63.27
2022-07-31T08:22:26.822Z,63.29
2022-07-31T08:24:56.472Z,63.37
2022-07-31T08:27:24.093Z,63.33
2022-07-31T08:30:08.465Z,63.24
2022-07-31T08:32:36.506Z,63.41
2022-07-31T08:35:19.323Z,63.46
2022-07-31T08:37:51.276Z,63.46
2022-07-31T08:40:43.201Z,63.46
2022-07-31T08:44:01.831Z,63.45
2022-07-31T08:46:04.798Z,63.54
2022-07-31T08:48:41.280Z,63.56
2022-07-31T08:51:12.459Z,63.60
2022-07-31T08:54:01.919Z,63.44
2022-07-31T08:56:30.158Z,63.42
2022-07-31T08:58:59.538Z,63.65
2022-07-31T09:01:27.871Z,63.65
2022-07-31T09:03:58.634Z,63.68
2022-07-31T09:06:26.417Z,63.68
2022-07-31T09:08:56.646Z,63.73
2022-07-31T09:11:24.524Z,63.65
2022-07-31T09:14:04.440Z,63.71
2022-07-31T09:16:50.462Z,63.75
2022-07-31T09:19:54.178Z,63.83
2022-07-31T09:23:09.582Z,63.94
2022-07-31T09:25:52.656Z,63.91
2022-07-31T09:28:25.017Z,63.99
2022-07-31T09:30:56.104Z,63.86
2022-07-31T09:33:42.332Z,63.83
2022-07-31T09:36:36.992Z,64.02
2022-07-31T09:39:35.979Z,63.88
2022-07-31T09:42:36.376Z,63.83
2022-07-31T09:45:22.252Z,63.93
2022-07-31T09:48:15.137Z,63.88
2022-07-31T09:50:55.355Z,64.03
2022-07-31T09:53:24.703Z,64.05
2022-07-31T09:55:58.286Z,64.03
2022-07-31T09:58:26.072Z,63.97
2022-07-31T10:00:56.500Z,64.03
2022-07-31T10:03:26.685Z,64.02
2022-07-31T10:05:56.318Z,63.92
2022-07-31T10:08:28.960Z,64.12
2022-07-31T10:11:20.264Z,64.02
2022-07-31T10:13:59.702Z,64.13
2022-07-31T10:16:31.823Z,64.23
2022-07-31T10:19:19.764Z,64.50
2022-07-31T10:22:12.957Z,64.47
2022-07-31T10:24:45.751Z,64.34
2022-07-31T10:27:18.662Z,64.34
2022-07-31T10:29:52.701Z,64.32
2022-07-31T10:32:22.385Z,64.30
2022-07-31T10:35:09.578Z,64.57
2022-07-31T10:38:35.399Z,64.47
2022-07-31T10:41:36.400Z,64.47
2022-07-31T10:44:44.000Z,64.51
2022-07-31T10:47:33.883Z,64.54
2022-07-31T10:50:33.861Z,64.58
2022-07-31T10:53:15.363Z,64.68
2022-07-31T10:56:04.947Z,64.63
2022-07-31T10:59:01.589Z,64.56
2022-07-31T11:01:52.805Z,64.67
2022-07-31T11:04:41.952Z,64.73
2022-07-31T11:07:30.640Z,64.85
2022-07-31T11:10:53.792Z,64.73
2022-07-31T11:13:55.433Z,64.75
2022-07-31T11:16:55.486Z,64.95
2022-07-31T11:19:43.626Z,64.82
2022-07-31T11:22:32.363Z,64.92
2022-07-31T11:25:01.634Z,64.99
2022-07-31T11:27:31.657Z,65.01
2022-07-31T11:30:12.432Z,64.90
2022-07-31T11:32:53.525Z,64.94
2022-07-31T11:35:30.144Z,64.83
2022-07-31T11:37:59.820Z,65.02
2022-07-31T11:40:28.452Z,65.02
2022-07-31T11:43:25.377Z,64.94
2022-07-31T11:45:55.871Z,65.02
2022-07-31T11:48:27.725Z,65.04
2022-07-31T11:50:56.075Z,65.01
2022-07-31T11:53:24.084Z,65.06
2022-07-31T11:55:54.468Z,64.95
2022-07-31T11:58:24.001Z,65.05
2022-07-31T12:00:54.964Z,65.07
2022-07-31T12:03:39.157Z,65.09
2022-07-31T12:06:08.606Z,65.08
2022-07-31T12:08:38.250Z,65.09
2022-07-31T12:11:09.148Z,65.21
2022-07-31T12:13:38.512Z,65.14
2022-07-31T12:16:11.251Z,65.08
2022-07-31T12:18:50.243Z,65.13
2022-07-31T12:21:19.336Z,65.19
2022-07-31T12:23:53.181Z,65.17
2022-07-31T12:26:28.182Z,65.24
2022-07-31T12:29:19.873Z,65.31
2022-07-31T12:31:52.809Z,65.33
2022-07-31T12:34:27.571Z,65.33
2022-07-31T12:37:04.039Z,65.47
2022-07-31T12:39:54.251Z,65.53
2022-07-31T12:42:34.061Z,65.51
2022-07-31T12:45:18.406Z,65.67
2022-07-31T12:47:54.456Z,65.66
2022-07-31T12:50:24.611Z,65.65
2022-07-31T12:52:53.344Z,65.64
2022-07-31T12:55:22.451Z,65.80
2022-07-31T12:57:52.180Z,65.76
2022-07-31T13:00:23.290Z,65.83
2022-07-31T13:02:52.130Z,65.84
2022-07-31T13:05:20.264Z,65.88
2022-07-31T13:07:48.825Z,65.85
2022-07-31T13:10:21.973Z,65.90
2022-07-31T13:12:52.313Z,65.88
2022-07-31T13:15:23.078Z,66.01
2022-07-31T13:17:51.068Z,66.02
2022-07-31T13:20:18.785Z,65.88
2022-07-31T13:22:46.493Z,66.00
2022-07-31T13:25:14.096Z,66.01
2022-07-31T13:27:41.657Z,65.99
2022-07-31T13:30:09.744Z,66.03
2022-07-31T13:32:37.549Z,66.18
2022-07-31T13:35:26.983Z,66.33
2022-07-31T13:37:53.913Z,66.41
2022-07-31T13:40:42.013Z,66.46
2022-07-31T13:43:09.559Z,66.32
2022-07-31T13:45:37.178Z,66.29
2022-07-31T13:48:09.333Z,66.19
2022-07-31T13:50:42.208Z,66.25
2022-07-31T13:53:10.856Z,66.27
2022-07-31T13:55:39.489Z,66.26
2022-07-31T13:58:08.329Z,66.39
2022-07-31T14:00:36.632Z,66.39
2022-07-31T14:03:04.379Z,66.43
2022-07-31T14:05:32.627Z,66.50
2022-07-31T14:08:33.456Z,66.49
2022-07-31T14:10:59.001Z,66.62
2022-07-31T14:13:28.708Z,66.68
2022-07-31T14:15:56.976Z,66.43
2022-07-31T14:18:25.060Z,66.47
2022-07-31T14:20:53.274Z,66.53
2022-07-31T14:23:21.119Z,66.48
2022-07-31T14:26:02.511Z,66.48
2022-07-31T14:28:31.218Z,66.48
2022-07-31T14:30:59.063Z,66.42
2022-07-31T14:33:27.202Z,66.47
2022-07-31T14:35:54.650Z,66.11
2022-07-31T14:38:27.452Z,66.32
2022-07-31T14:40:55.944Z,66.31
2022-07-31T14:43:23.176Z,66.38
2022-07-31T14:45:52.150Z,66.63
2022-07-31T14:48:21.808Z,66.52
2022-07-31T14:50:48.839Z,66.66
2022-07-31T14:53:16.972Z,66.68
2022-07-31T14:55:44.669Z,66.55
2022-07-31T14:58:11.727Z,66.70
2022-07-31T15:00:38.601Z,66.86
2022-07-31T15:03:06.875Z,66.71
2022-07-31T15:06:41.932Z,66.60
2022-07-31T15:08:22.663Z,66.90
2022-07-31T15:10:49.589Z,66.88
2022-07-31T15:13:16.618Z,66.91
2022-07-31T15:15:45.361Z,66.80
2022-07-31T15:18:12.930Z,66.80
2022-07-31T15:20:40.639Z,66.86
2022-07-31T15:23:08.068Z,66.96
2022-07-31T15:25:36.452Z,66.86
2022-07-31T15:28:04.383Z,66.79
2022-07-31T15:30:32.515Z,66.90
2022-07-31T15:33:00.266Z,67.00
2022-07-31T15:35:29.246Z,67.08
2022-07-31T15:38:09.183Z,67.15
2022-07-31T15:40:36.934Z,67.04
2022-07-31T15:43:05.217Z,67.02
2022-07-31T15:45:33.296Z,67.05
2022-07-31T15:48:01.389Z,67.11
2022-07-31T15:50:29.213Z,67.03
2022-07-31T15:52:57.482Z,67.15
2022-07-31T15:55:26.412Z,67.05
2022-07-31T15:57:55.586Z,67.00
2022-07-31T16:00:24.481Z,67.15
2022-07-31T16:02:52.520Z,67.25
2022-07-31T16:05:35.849Z,67.22
2022-07-31T16:08:30.919Z,67.36
2022-07-31T16:10:55.901Z,67.17
2022-07-31T16:13:25.068Z,67.17
2022-07-31T16:15:53.942Z,67.22
2022-07-31T16:18:21.919Z,67.24
2022-07-31T16:20:49.892Z,67.21
2022-07-31T16:23:17.697Z,67.30
2022-07-31T16:25:45.373Z,67.19
2022-07-31T16:28:14.938Z,67.23
2022-07-31T16:30:45.686Z,67.32
2022-07-31T16:33:14.269Z,67.23
2022-07-31T16:35:42.852Z,67.28
2022-07-31T16:38:10.538Z,67.23
2022-07-31T16:40:38.330Z,67.36
2022-07-31T16:43:46.807Z,67.38
2022-07-31T16:45:56.565Z,67.31
2022-07-31T16:48:24.405Z,67.29
2022-07-31T16:50:53.236Z,67.32
2022-07-31T16:54:12.046Z,67.31
2022-07-31T16:56:13.837Z,67.36
2022-07-31T16:58:41.242Z,67.35
2022-07-31T17:01:57.259Z,67.31
2022-07-31T17:04:03.878Z,67.31
2022-07-31T17:06:37.760Z,67.30
2022-07-31T17:09:15.749Z,67.31
2022-07-31T17:11:52.542Z,67.38
2022-07-31T17:14:24.089Z,67.44
2022-07-31T17:16:53.515Z,67.36
2022-07-31T17:19:42.333Z,67.44
2022-07-31T17:22:17.659Z,67.38
2022-07-31T17:24:51.307Z,67.30
2022-07-31T17:27:20.279Z,67.38
2022-07-31T17:29:48.543Z,67.40
2022-07-31T17:32:17.113Z,67.39
2022-07-31T17:34:46.371Z,67.28
2022-07-31T17:37:17.065Z,67.37
2022-07-31T17:39:45.579Z,67.43
2022-07-31T17:42:14.113Z,67.37
2022-07-31T17:44:41.865Z,67.33
2022-07-31T17:47:15.160Z,67.24
2022-07-31T17:49:43.127Z,67.35
2022-07-31T17:52:10.932Z,67.20
2022-07-31T17:54:38.845Z,67.36
2022-07-31T17:57:06.334Z,67.32
2022-07-31T17:59:34.070Z,67.39
2022-07-31T18:02:03.534Z,67.42
2022-07-31T18:04:39.452Z,67.46
2022-07-31T18:07:08.737Z,67.43
2022-07-31T18:09:36.865Z,67.35
2022-07-31T18:12:04.614Z,67.31
2022-07-31T18:14:31.856Z,67.40
2022-07-31T18:16:59.871Z,67.39
2022-07-31T18:19:27.605Z,67.38
2022-07-31T18:21:55.429Z,67.36
2022-07-31T18:24:24.004Z,67.36
2022-07-31T18:26:53.509Z,67.30
2022-07-31T18:29:21.561Z,67.27
2022-07-31T18:31:49.012Z,67.16
2022-07-31T18:34:16.790Z,67.23
2022-07-31T18:36:44.198Z,67.15
2022-07-31T18:39:12.020Z,67.26
2022-07-31T18:42:07.077Z,67.28
2022-07-31T18:44:35.764Z,67.18
2022-07-31T18:47:26.038Z,67.09
2022-07-31T18:50:59.211Z,67.19
2022-07-31T18:52:40.459Z,67.32
2022-07-31T18:55:09.065Z,67.36
2022-07-31T18:57:36.336Z,67.22
2022-07-31T19:00:07.591Z,67.27
2022-07-31T19:02:36.501Z,67.27
2022-07-31T19:05:04.020Z,67.23
2022-07-31T19:07:35.939Z,67.25
2022-07-31T19:10:07.474Z,67.24
2022-07-31T19:12:35.688Z,67.31
2022-07-31T19:15:04.575Z,67.29
2022-07-31T19:17:43.266Z,67.31
2022-07-31T19:20:14.919Z,67.25
2022-07-31T19:23:01.687Z,67.18
2022-07-31T19:25:59.467Z,67.21
2022-07-31T19:28:23.091Z,67.23
2022-07-31T19:30:55.700Z,67.21
2022-07-31T19:33:23.929Z,67.29
2022-07-31T19:35:56.951Z,67.28
2022-07-31T19:38:31.716Z,67.42
2022-07-31T19:41:00.698Z,67.35
2022-07-31T19:43:29.588Z,67.37
2022-07-31T19:46:09.915Z,67.21
2022-07-31T19:48:43.192Z,67.18
2022-07-31T19:51:13.435Z,67.35
2022-07-31T19:53:41.960Z,67.29
2022-07-31T19:56:11.042Z,67.29
2022-07-31T19:58:41.753Z,67.32
2022-07-31T20:01:11.489Z,67.25
2022-07-31T20:03:40.468Z,67.36
2022-07-31T20:06:13.334Z,67.31
2022-07-31T20:08:41.391Z,67.27
2022-07-31T20:11:09.292Z,67.31
2022-07-31T20:13:38.249Z,67.30
2022-07-31T20:16:06.856Z,67.23
2022-07-31T20:18:34.844Z,67.32
2022-07-31T20:21:10.011Z,67.28
2022-07-31T20:23:39.166Z,67.30
2022-07-31T20:26:24.995Z,67.35
2022-07-31T20:28:53.816Z,67.29
2022-07-31T20:31:21.869Z,67.42
2022-07-31T20:33:57.528Z,67.30
2022-07-31T20:36:28.358Z,67.29
2022-07-31T20:38:58.413Z,67.28
2022-07-31T20:41:30.040Z,67.31
2022-07-31T20:44:00.711Z,67.30
2022-07-31T20:46:30.306Z,67.16
2022-07-31T20:48:59.326Z,67.01
2022-07-31T20:51:28.819Z,67.21
2022-07-31T20:53:57.235Z,67.14
2022-07-31T20:56:25.083Z,67.23
2022-07-31T20:58:52.799Z,67.33
